sensor_id;sensor_type;location;lat;lon;timestamp;pressure;altitude;pressure_sealevel;temperature;humidity
49040;BME280;36811;49.732;13.402;2023-01-01T00:01:56;98051.84;;;14.88;57.66
49040;BME280;36811;49.732;13.402;2023-01-01T00:04:22;98052.16;;;14.82;57.60
49040;BME280;36811;49.732;13.402;2023-01-01T00:06:47;98042.25;;;14.77;58.06
49040;BME280;36811;49.732;13.402;2023-01-01T00:09:13;98045.50;;;14.69;58.11
49040;BME280;36811;49.732;13.402;2023-01-01T00:11:56;98039.66;;;14.62;58.01
49040;BME280;36811;49.732;13.402;2023-01-01T00:14:22;98045.56;;;14.59;58.59
49040;BME280;36811;49.732;13.402;2023-01-01T00:16:47;98043.44;;;14.56;58.60
49040;BME280;36811;49.732;13.402;2023-01-01T00:19:13;98048.00;;;14.50;58.32
49040;BME280;36811;49.732;13.402;2023-01-01T00:21:38;98049.38;;;14.43;58.72
49040;BME280;36811;49.732;13.402;2023-01-01T00:24:04;98054.47;;;14.39;59.02
49040;BME280;36811;49.732;13.402;2023-01-01T00:26:31;98056.38;;;14.34;59.10
49040;BME280;36811;49.732;13.402;2023-01-01T00:28:56;98050.47;;;14.27;59.22
49040;BME280;36811;49.732;13.402;2023-01-01T00:31:22;98052.09;;;14.18;59.52
49040;BME280;36811;49.732;13.402;2023-01-01T00:33:51;98060.13;;;14.13;59.68
49040;BME280;36811;49.732;13.402;2023-01-01T00:36:18;98057.97;;;14.10;59.60
49040;BME280;36811;49.732;13.402;2023-01-01T00:38:44;98063.63;;;14.08;59.74
49040;BME280;36811;49.732;13.402;2023-01-01T00:41:10;98053.75;;;13.98;59.64
49040;BME280;36811;49.732;13.402;2023-01-01T00:43:36;98069.78;;;14.04;59.87
49040;BME280;36811;49.732;13.402;2023-01-01T00:46:01;98066.31;;;14.03;59.79
49040;BME280;36811;49.732;13.402;2023-01-01T00:48:27;98075.13;;;14.04;59.80
49040;BME280;36811;49.732;13.402;2023-01-01T00:50:52;98089.28;;;13.99;59.79
49040;BME280;36811;49.732;13.402;2023-01-01T00:53:19;98080.22;;;13.95;60.12
49040;BME280;36811;49.732;13.402;2023-01-01T00:55:44;98085.56;;;13.90;59.84
49040;BME280;36811;49.732;13.402;2023-01-01T00:58:11;98093.59;;;13.80;60.28
49040;BME280;36811;49.732;13.402;2023-01-01T01:00:36;98107.50;;;13.77;60.19
49040;BME280;36811;49.732;13.402;2023-01-01T01:03:02;98113.13;;;13.70;60.47
49040;BME280;36811;49.732;13.402;2023-01-01T01:05:27;98097.59;;;13.72;60.04
49040;BME280;36811;49.732;13.402;2023-01-01T01:07:53;98111.50;;;13.74;60.45
49040;BME280;36811;49.732;13.402;2023-01-01T01:10:19;98110.97;;;13.67;60.38
49040;BME280;36811;49.732;13.402;2023-01-01T01:12:46;98117.38;;;13.51;60.59
49040;BME280;36811;49.732;13.402;2023-01-01T01:15:12;98113.63;;;13.37;61.53
49040;BME280;36811;49.732;13.402;2023-01-01T01:17:39;98122.66;;;13.21;61.29
49040;BME280;36811;49.732;13.402;2023-01-01T01:20:05;98129.88;;;13.10;61.56
49040;BME280;36811;49.732;13.402;2023-01-01T01:22:31;98132.72;;;12.94;62.40
49040;BME280;36811;49.732;13.402;2023-01-01T01:24:58;98133.16;;;12.75;62.45
49040;BME280;36811;49.732;13.402;2023-01-01T01:27:24;98137.41;;;12.66;62.68
49040;BME280;36811;49.732;13.402;2023-01-01T01:29:50;98139.22;;;12.56;63.33
49040;BME280;36811;49.732;13.402;2023-01-01T01:32:15;98138.38;;;12.50;63.71
49040;BME280;36811;49.732;13.402;2023-01-01T01:34:41;98130.94;;;12.57;63.29
49040;BME280;36811;49.732;13.402;2023-01-01T01:37:06;98134.19;;;12.64;63.09
49040;BME280;36811;49.732;13.402;2023-01-01T01:39:31;98128.88;;;12.69;63.34
49040;BME280;36811;49.732;13.402;2023-01-01T01:41:57;98137.16;;;12.73;62.52
49040;BME280;36811;49.732;13.402;2023-01-01T01:47:07;98141.69;;;12.72;62.86
49040;BME280;36811;49.732;13.402;2023-01-01T01:49:38;98141.16;;;12.70;63.50
49040;BME280;36811;49.732;13.402;2023-01-01T01:52:04;98150.75;;;12.66;63.36
49040;BME280;36811;49.732;13.402;2023-01-01T01:54:29;98154.69;;;12.54;63.82
49040;BME280;36811;49.732;13.402;2023-01-01T01:56:58;98149.81;;;12.41;64.24
49040;BME280;36811;49.732;13.402;2023-01-01T01:59:29;98157.44;;;12.27;64.24
49040;BME280;36811;49.732;13.402;2023-01-01T02:01:56;98155.50;;;12.18;64.35
49040;BME280;36811;49.732;13.402;2023-01-01T02:04:22;98150.88;;;12.03;64.55
49040;BME280;36811;49.732;13.402;2023-01-01T02:06:47;98145.47;;;11.93;65.40
49040;BME280;36811;49.732;13.402;2023-01-01T02:09:14;98148.06;;;11.83;65.03
49040;BME280;36811;49.732;13.402;2023-01-01T02:11:39;98137.81;;;11.70;65.99
49040;BME280;36811;49.732;13.402;2023-01-01T02:14:05;98136.94;;;11.64;66.11
49040;BME280;36811;49.732;13.402;2023-01-01T02:27:39;98139.34;;;11.12;67.20
49040;BME280;36811;49.732;13.402;2023-01-01T02:30:11;98140.16;;;11.13;67.49
49040;BME280;36811;49.732;13.402;2023-01-01T02:32:41;98142.50;;;11.09;67.72
49040;BME280;36811;49.732;13.402;2023-01-01T02:35:19;98133.91;;;11.02;67.77
49040;BME280;36811;49.732;13.402;2023-01-01T02:38:10;98139.69;;;10.94;68.25
49040;BME280;36811;49.732;13.402;2023-01-01T02:40:46;98137.78;;;10.90;68.67
49040;BME280;36811;49.732;13.402;2023-01-01T02:43:12;98130.06;;;10.93;68.50
49040;BME280;36811;49.732;13.402;2023-01-01T02:45:37;98131.44;;;10.96;68.34
49040;BME280;36811;49.732;13.402;2023-01-01T02:48:07;98127.41;;;10.93;68.99
49040;BME280;36811;49.732;13.402;2023-01-01T02:50:48;98125.56;;;10.94;68.59
49040;BME280;36811;49.732;13.402;2023-01-01T02:53:18;98128.47;;;10.92;68.70
49040;BME280;36811;49.732;13.402;2023-01-01T02:58:24;98132.13;;;10.86;69.01
49040;BME280;36811;49.732;13.402;2023-01-01T03:01:13;98132.63;;;10.83;69.42
49040;BME280;36811;49.732;13.402;2023-01-01T03:03:46;98140.13;;;10.86;69.25
49040;BME280;36811;49.732;13.402;2023-01-01T03:06:25;98145.84;;;10.78;69.39
49040;BME280;36811;49.732;13.402;2023-01-01T03:11:20;98146.13;;;10.55;69.53
49040;BME280;36811;49.732;13.402;2023-01-01T03:16:27;98139.56;;;10.62;70.14
49040;BME280;36811;49.732;13.402;2023-01-01T03:21:38;98152.47;;;10.75;70.38
49040;BME280;36811;49.732;13.402;2023-01-01T03:24:04;98154.97;;;10.82;70.20
49040;BME280;36811;49.732;13.402;2023-01-01T03:26:31;98148.09;;;10.86;70.46
49040;BME280;36811;49.732;13.402;2023-01-01T03:28:59;98151.88;;;10.90;70.08
49040;BME280;36811;49.732;13.402;2023-01-01T03:31:29;98150.69;;;10.81;70.04
49040;BME280;36811;49.732;13.402;2023-01-01T03:33:58;98148.28;;;10.79;70.00
49040;BME280;36811;49.732;13.402;2023-01-01T03:36:32;98156.22;;;10.74;70.40
49040;BME280;36811;49.732;13.402;2023-01-01T03:39:34;98142.84;;;10.69;70.57
49040;BME280;36811;49.732;13.402;2023-01-01T03:41:54;98142.53;;;10.66;70.75
49040;BME280;36811;49.732;13.402;2023-01-01T03:46:57;98132.88;;;10.60;70.95
49040;BME280;36811;49.732;13.402;2023-01-01T03:49:23;98128.34;;;10.60;71.24
49040;BME280;36811;49.732;13.402;2023-01-01T03:51:59;98136.09;;;10.62;71.10
49040;BME280;36811;49.732;13.402;2023-01-01T03:56:58;98147.56;;;10.46;71.33
49040;BME280;36811;49.732;13.402;2023-01-01T03:59:28;98145.84;;;10.35;71.57
49040;BME280;36811;49.732;13.402;2023-01-01T04:01:56;98144.97;;;10.29;71.80
49040;BME280;36811;49.732;13.402;2023-01-01T04:04:22;98153.91;;;10.23;72.25
49040;BME280;36811;49.732;13.402;2023-01-01T04:06:48;98148.59;;;10.23;72.50
49040;BME280;36811;49.732;13.402;2023-01-01T04:09:15;98148.25;;;10.19;72.31
49040;BME280;36811;49.732;13.402;2023-01-01T04:11:42;98142.59;;;9.99;72.71
49040;BME280;36811;49.732;13.402;2023-01-01T04:14:30;98150.69;;;9.88;72.57
49040;BME280;36811;49.732;13.402;2023-01-01T04:16:56;98158.31;;;9.84;73.26
49040;BME280;36811;49.732;13.402;2023-01-01T04:19:21;98159.22;;;9.73;73.21
49040;BME280;36811;49.732;13.402;2023-01-01T04:21:47;98152.34;;;9.61;73.03
49040;BME280;36811;49.732;13.402;2023-01-01T04:24:12;98148.56;;;9.56;73.45
49040;BME280;36811;49.732;13.402;2023-01-01T04:26:39;98140.84;;;9.55;73.69
49040;BME280;36811;49.732;13.402;2023-01-01T04:29:05;98142.47;;;9.56;74.63
49040;BME280;36811;49.732;13.402;2023-01-01T04:31:30;98129.72;;;9.75;74.41
49040;BME280;36811;49.732;13.402;2023-01-01T04:33:55;98126.50;;;9.89;74.06
49040;BME280;36811;49.732;13.402;2023-01-01T04:36:21;98122.63;;;9.97;74.37
49040;BME280;36811;49.732;13.402;2023-01-01T04:38:46;98130.22;;;10.05;74.10
49040;BME280;36811;49.732;13.402;2023-01-01T04:41:12;98128.84;;;10.02;73.57
49040;BME280;36811;49.732;13.402;2023-01-01T04:43:37;98134.72;;;9.88;73.10
49040;BME280;36811;49.732;13.402;2023-01-01T04:46:03;98133.13;;;9.70;72.87
49040;BME280;36811;49.732;13.402;2023-01-01T04:48:29;98138.56;;;9.47;73.66
49040;BME280;36811;49.732;13.402;2023-01-01T04:50:56;98134.66;;;9.21;74.79
49040;BME280;36811;49.732;13.402;2023-01-01T04:53:22;98143.09;;;9.18;74.76
49040;BME280;36811;49.732;13.402;2023-01-01T04:55:48;98150.72;;;9.15;74.34
49040;BME280;36811;49.732;13.402;2023-01-01T04:58:13;98147.31;;;9.03;74.80
49040;BME280;36811;49.732;13.402;2023-01-01T05:00:39;98151.06;;;8.90;75.83
49040;BME280;36811;49.732;13.402;2023-01-01T05:03:04;98152.91;;;8.78;76.00
49040;BME280;36811;49.732;13.402;2023-01-01T05:05:29;98154.94;;;8.59;76.58
49040;BME280;36811;49.732;13.402;2023-01-01T05:07:55;98148.72;;;8.54;77.14
49040;BME280;36811;49.732;13.402;2023-01-01T05:10:20;98161.16;;;8.53;77.89
49040;BME280;36811;49.732;13.402;2023-01-01T05:12:46;98160.13;;;8.31;77.89
49040;BME280;36811;49.732;13.402;2023-01-01T05:15:11;98157.72;;;8.29;77.92
49040;BME280;36811;49.732;13.402;2023-01-01T05:17:37;98161.75;;;8.32;78.36
49040;BME280;36811;49.732;13.402;2023-01-01T05:20:02;98169.47;;;8.34;78.38
49040;BME280;36811;49.732;13.402;2023-01-01T05:22:28;98170.75;;;8.31;78.17
49040;BME280;36811;49.732;13.402;2023-01-01T05:24:53;98174.09;;;8.26;77.94
49040;BME280;36811;49.732;13.402;2023-01-01T05:27:19;98168.41;;;8.23;78.49
49040;BME280;36811;49.732;13.402;2023-01-01T05:29:44;98173.38;;;8.19;79.19
49040;BME280;36811;49.732;13.402;2023-01-01T05:32:10;98184.19;;;8.18;78.83
49040;BME280;36811;49.732;13.402;2023-01-01T05:34:35;98184.88;;;8.02;80.22
49040;BME280;36811;49.732;13.402;2023-01-01T05:37:00;98177.03;;;7.95;79.91
49040;BME280;36811;49.732;13.402;2023-01-01T05:39:26;98179.56;;;7.90;79.81
49040;BME280;36811;49.732;13.402;2023-01-01T05:41:51;98185.44;;;7.92;79.85
49040;BME280;36811;49.732;13.402;2023-01-01T05:44:17;98190.59;;;7.87;79.82
49040;BME280;36811;49.732;13.402;2023-01-01T05:46:43;98190.84;;;7.86;79.37
49040;BME280;36811;49.732;13.402;2023-01-01T05:49:09;98194.31;;;7.86;80.27
49040;BME280;36811;49.732;13.402;2023-01-01T05:51:35;98187.50;;;7.90;80.16
49040;BME280;36811;49.732;13.402;2023-01-01T05:54:01;98196.25;;;7.91;80.44
49040;BME280;36811;49.732;13.402;2023-01-01T05:56:26;98201.19;;;7.87;80.91
49040;BME280;36811;49.732;13.402;2023-01-01T05:58:52;98203.28;;;7.85;80.37
49040;BME280;36811;49.732;13.402;2023-01-01T06:01:25;98197.97;;;7.85;81.20
49040;BME280;36811;49.732;13.402;2023-01-01T06:03:51;98201.53;;;7.79;81.03
49040;BME280;36811;49.732;13.402;2023-01-01T06:06:21;98202.66;;;7.72;80.92
49040;BME280;36811;49.732;13.402;2023-01-01T06:08:48;98211.84;;;7.69;81.58
49040;BME280;36811;49.732;13.402;2023-01-01T06:11:14;98205.78;;;7.68;81.97
49040;BME280;36811;49.732;13.402;2023-01-01T06:13:39;98212.09;;;7.67;81.95
49040;BME280;36811;49.732;13.402;2023-01-01T06:16:05;98211.06;;;7.68;82.54
49040;BME280;36811;49.732;13.402;2023-01-01T06:18:32;98224.78;;;7.77;82.27
49040;BME280;36811;49.732;13.402;2023-01-01T06:21:04;98215.94;;;7.83;82.83
49040;BME280;36811;49.732;13.402;2023-01-01T06:23:30;98227.97;;;7.67;81.57
49040;BME280;36811;49.732;13.402;2023-01-01T06:25:55;98222.31;;;7.64;82.03
49040;BME280;36811;49.732;13.402;2023-01-01T06:28:21;98223.25;;;7.69;82.77
49040;BME280;36811;49.732;13.402;2023-01-01T06:30:46;98232.69;;;7.65;82.35
49040;BME280;36811;49.732;13.402;2023-01-01T06:33:12;98241.09;;;7.62;82.91
49040;BME280;36811;49.732;13.402;2023-01-01T06:35:37;98240.38;;;7.55;82.34
49040;BME280;36811;49.732;13.402;2023-01-01T06:38:02;98243.78;;;7.44;82.05
49040;BME280;36811;49.732;13.402;2023-01-01T06:40:28;98243.06;;;7.37;82.41
49040;BME280;36811;49.732;13.402;2023-01-01T06:42:53;98243.50;;;7.34;82.83
49040;BME280;36811;49.732;13.402;2023-01-01T06:45:19;98246.81;;;7.30;81.95
49040;BME280;36811;49.732;13.402;2023-01-01T06:47:44;98257.94;;;7.20;82.48
49040;BME280;36811;49.732;13.402;2023-01-01T06:50:10;98263.13;;;7.09;82.33
49040;BME280;36811;49.732;13.402;2023-01-01T06:52:35;98259.03;;;6.94;82.46
49040;BME280;36811;49.732;13.402;2023-01-01T06:55:01;98269.91;;;6.86;83.04
49040;BME280;36811;49.732;13.402;2023-01-01T06:57:26;98271.28;;;6.71;83.49
49040;BME280;36811;49.732;13.402;2023-01-01T06:59:51;98266.22;;;6.69;83.75
49040;BME280;36811;49.732;13.402;2023-01-01T07:02:17;98284.50;;;6.71;84.56
49040;BME280;36811;49.732;13.402;2023-01-01T07:04:42;98284.13;;;6.67;84.77
49040;BME280;36811;49.732;13.402;2023-01-01T07:07:08;98272.91;;;6.72;84.34
49040;BME280;36811;49.732;13.402;2023-01-01T07:09:33;98272.25;;;6.76;84.57
49040;BME280;36811;49.732;13.402;2023-01-01T07:11:58;98275.47;;;6.78;84.39
49040;BME280;36811;49.732;13.402;2023-01-01T07:14:24;98276.44;;;6.84;84.70
49040;BME280;36811;49.732;13.402;2023-01-01T07:16:49;98284.75;;;6.87;84.76
49040;BME280;36811;49.732;13.402;2023-01-01T07:19:15;98279.47;;;6.87;84.39
49040;BME280;36811;49.732;13.402;2023-01-01T07:22:01;98272.94;;;6.90;84.87
49040;BME280;36811;49.732;13.402;2023-01-01T07:24:26;98281.97;;;7.00;84.52
49040;BME280;36811;49.732;13.402;2023-01-01T07:26:51;98281.31;;;7.05;84.08
49040;BME280;36811;49.732;13.402;2023-01-01T07:29:17;98276.75;;;7.12;84.42
49040;BME280;36811;49.732;13.402;2023-01-01T07:31:43;98273.13;;;7.25;84.37
49040;BME280;36811;49.732;13.402;2023-01-01T07:34:11;98289.34;;;7.46;85.29
49040;BME280;36811;49.732;13.402;2023-01-01T07:36:37;98292.09;;;7.69;85.27
49040;BME280;36811;49.732;13.402;2023-01-01T07:39:02;98307.19;;;7.99;85.55
49040;BME280;36811;49.732;13.402;2023-01-01T07:41:28;98316.75;;;8.29;83.47
49040;BME280;36811;49.732;13.402;2023-01-01T07:43:53;98292.56;;;8.61;83.22
49040;BME280;36811;49.732;13.402;2023-01-01T07:46:19;98302.94;;;8.97;81.92
49040;BME280;36811;49.732;13.402;2023-01-01T07:48:44;98301.84;;;9.33;81.57
49040;BME280;36811;49.732;13.402;2023-01-01T07:51:10;98302.47;;;9.63;79.88
49040;BME280;36811;49.732;13.402;2023-01-01T07:53:35;98303.84;;;9.94;79.42
49040;BME280;36811;49.732;13.402;2023-01-01T07:56:01;98299.94;;;10.30;78.29
49040;BME280;36811;49.732;13.402;2023-01-01T07:58:26;98308.75;;;10.80;77.33
49040;BME280;36811;49.732;13.402;2023-01-01T08:00:52;98307.41;;;11.37;75.86
49040;BME280;36811;49.732;13.402;2023-01-01T08:03:17;98314.00;;;12.00;74.14
49040;BME280;36811;49.732;13.402;2023-01-01T08:05:42;98312.97;;;12.59;72.82
49040;BME280;36811;49.732;13.402;2023-01-01T08:08:09;98300.84;;;13.15;71.27
49040;BME280;36811;49.732;13.402;2023-01-01T08:10:35;98323.22;;;13.66;69.61
49040;BME280;36811;49.732;13.402;2023-01-01T08:13:01;98316.94;;;14.02;67.79
49040;BME280;36811;49.732;13.402;2023-01-01T08:15:27;98328.00;;;14.36;66.73
49040;BME280;36811;49.732;13.402;2023-01-01T08:17:56;98326.13;;;14.67;66.45
49040;BME280;36811;49.732;13.402;2023-01-01T08:20:22;98329.03;;;14.91;65.99
49040;BME280;36811;49.732;13.402;2023-01-01T08:22:47;98329.06;;;14.86;65.44
49040;BME280;36811;49.732;13.402;2023-01-01T08:25:13;98335.22;;;14.96;65.06
49040;BME280;36811;49.732;13.402;2023-01-01T08:27:38;98342.72;;;14.94;64.38
49040;BME280;36811;49.732;13.402;2023-01-01T08:30:04;98339.53;;;14.87;63.89
49040;BME280;36811;49.732;13.402;2023-01-01T08:32:29;98334.69;;;14.94;63.69
49040;BME280;36811;49.732;13.402;2023-01-01T08:34:55;98331.69;;;15.11;63.63
49040;BME280;36811;49.732;13.402;2023-01-01T08:37:20;98335.41;;;15.35;63.35
49040;BME280;36811;49.732;13.402;2023-01-01T08:39:49;98332.44;;;15.47;62.81
49040;BME280;36811;49.732;13.402;2023-01-01T08:42:15;98326.53;;;15.50;61.84
49040;BME280;36811;49.732;13.402;2023-01-01T08:44:41;98331.38;;;15.48;61.64
49040;BME280;36811;49.732;13.402;2023-01-01T08:47:14;98331.91;;;15.40;61.59
49040;BME280;36811;49.732;13.402;2023-01-01T08:49:40;98335.69;;;15.23;61.47
49040;BME280;36811;49.732;13.402;2023-01-01T08:52:06;98344.28;;;15.15;61.52
49040;BME280;36811;49.732;13.402;2023-01-01T08:54:31;98340.81;;;15.15;62.02
49040;BME280;36811;49.732;13.402;2023-01-01T08:56:56;98338.94;;;15.10;62.05
49040;BME280;36811;49.732;13.402;2023-01-01T08:59:22;98337.34;;;15.09;61.62
49040;BME280;36811;49.732;13.402;2023-01-01T09:01:47;98337.59;;;15.13;61.70
49040;BME280;36811;49.732;13.402;2023-01-01T09:04:13;98349.91;;;15.24;61.90
49040;BME280;36811;49.732;13.402;2023-01-01T09:06:38;98353.63;;;15.28;61.33
49040;BME280;36811;49.732;13.402;2023-01-01T09:09:04;98352.28;;;15.31;61.32
49040;BME280;36811;49.732;13.402;2023-01-01T09:11:29;98347.47;;;15.38;61.45
49040;BME280;36811;49.732;13.402;2023-01-01T09:13:55;98347.72;;;15.41;61.41
49040;BME280;36811;49.732;13.402;2023-01-01T09:16:20;98349.34;;;15.47;61.45
49040;BME280;36811;49.732;13.402;2023-01-01T09:18:46;98350.66;;;15.55;61.07
49040;BME280;36811;49.732;13.402;2023-01-01T09:21:12;98351.63;;;15.79;61.65
49040;BME280;36811;49.732;13.402;2023-01-01T09:23:37;98355.41;;;16.27;61.18
49040;BME280;36811;49.732;13.402;2023-01-01T09:26:03;98352.84;;;16.56;60.06
49040;BME280;36811;49.732;13.402;2023-01-01T09:28:29;98362.75;;;16.94;59.79
49040;BME280;36811;49.732;13.402;2023-01-01T09:30:54;98358.22;;;17.18;59.24
49040;BME280;36811;49.732;13.402;2023-01-01T09:33:20;98359.78;;;17.24;58.69
49040;BME280;36811;49.732;13.402;2023-01-01T09:35:45;98359.16;;;17.32;58.48
49040;BME280;36811;49.732;13.402;2023-01-01T09:38:11;98362.50;;;17.48;58.04
49040;BME280;36811;49.732;13.402;2023-01-01T09:45:59;98356.22;;;17.57;57.09
49040;BME280;36811;49.732;13.402;2023-01-01T09:48:26;98355.25;;;17.43;56.29
49040;BME280;36811;49.732;13.402;2023-01-01T09:50:52;98358.34;;;17.32;56.71
49040;BME280;36811;49.732;13.402;2023-01-01T09:55:50;98357.03;;;17.00;57.29
49040;BME280;36811;49.732;13.402;2023-01-01T09:58:22;98354.19;;;17.15;57.42
49040;BME280;36811;49.732;13.402;2023-01-01T10:00:49;98352.06;;;17.41;57.12
49040;BME280;36811;49.732;13.402;2023-01-01T10:09:06;98340.19;;;19.15;55.81
49040;BME280;36811;49.732;13.402;2023-01-01T10:14:04;98346.38;;;19.48;54.83
49040;BME280;36811;49.732;13.402;2023-01-01T10:16:47;98361.47;;;19.49;54.02
49040;BME280;36811;49.732;13.402;2023-01-01T10:19:31;98362.03;;;19.32;53.85
49040;BME280;36811;49.732;13.402;2023-01-01T10:22:00;98356.91;;;19.31;53.83
49040;BME280;36811;49.732;13.402;2023-01-01T10:26:53;98346.13;;;19.31;53.33
49040;BME280;36811;49.732;13.402;2023-01-01T10:29:21;98348.28;;;19.01;51.90
49040;BME280;36811;49.732;13.402;2023-01-01T10:31:49;98344.97;;;18.72;51.99
49040;BME280;36811;49.732;13.402;2023-01-01T10:34:19;98348.06;;;18.47;52.55
49040;BME280;36811;49.732;13.402;2023-01-01T10:36:46;98352.94;;;18.26;52.67
49040;BME280;36811;49.732;13.402;2023-01-01T10:39:14;98352.69;;;18.04;52.93
49040;BME280;36811;49.732;13.402;2023-01-01T10:41:40;98350.75;;;17.86;52.98
49040;BME280;36811;49.732;13.402;2023-01-01T10:44:06;98359.56;;;17.73;52.73
49040;BME280;36811;49.732;13.402;2023-01-01T10:46:32;98355.66;;;17.60;53.38
49040;BME280;36811;49.732;13.402;2023-01-01T10:49:03;98355.72;;;17.55;53.42
49040;BME280;36811;49.732;13.402;2023-01-01T10:51:29;98364.59;;;17.51;53.27
49040;BME280;36811;49.732;13.402;2023-01-01T10:53:55;98364.44;;;17.42;53.67
49040;BME280;36811;49.732;13.402;2023-01-01T10:56:21;98368.31;;;17.31;54.09
49040;BME280;36811;49.732;13.402;2023-01-01T10:58:48;98359.53;;;17.21;54.39
49040;BME280;36811;49.732;13.402;2023-01-01T11:01:25;98355.56;;;17.13;54.36
49040;BME280;36811;49.732;13.402;2023-01-01T11:06:21;98361.28;;;17.06;54.40
49040;BME280;36811;49.732;13.402;2023-01-01T11:08:49;98359.72;;;17.00;54.34
49040;BME280;36811;49.732;13.402;2023-01-01T11:11:22;98360.00;;;16.99;54.51
49040;BME280;36811;49.732;13.402;2023-01-01T11:13:50;98365.63;;;17.02;54.44
49040;BME280;36811;49.732;13.402;2023-01-01T11:16:17;98358.00;;;17.14;54.58
49040;BME280;36811;49.732;13.402;2023-01-01T11:18:43;98350.78;;;17.10;54.01
49040;BME280;36811;49.732;13.402;2023-01-01T11:21:09;98343.41;;;17.21;53.90
49040;BME280;36811;49.732;13.402;2023-01-01T11:23:35;98342.28;;;17.27;54.25
49040;BME280;36811;49.732;13.402;2023-01-01T11:26:06;98343.59;;;17.29;53.60
49040;BME280;36811;49.732;13.402;2023-01-01T11:28:32;98339.59;;;17.27;53.23
49040;BME280;36811;49.732;13.402;2023-01-01T11:33:52;98342.16;;;17.37;53.83
49040;BME280;36811;49.732;13.402;2023-01-01T11:36:25;98334.34;;;17.40;53.38
49040;BME280;36811;49.732;13.402;2023-01-01T11:41:38;98343.22;;;17.64;53.20
49040;BME280;36811;49.732;13.402;2023-01-01T11:44:04;98348.31;;;17.90;52.93
49040;BME280;36811;49.732;13.402;2023-01-01T11:46:29;98345.13;;;18.25;52.67
49040;BME280;36811;49.732;13.402;2023-01-01T11:48:56;98339.53;;;18.40;51.58
49040;BME280;36811;49.732;13.402;2023-01-01T11:51:29;98347.25;;;18.65;51.60
49040;BME280;36811;49.732;13.402;2023-01-01T11:54:19;98342.06;;;19.01;51.32
49040;BME280;36811;49.732;13.402;2023-01-01T11:56:48;98339.50;;;19.23;50.24
49040;BME280;36811;49.732;13.402;2023-01-01T11:59:15;98345.13;;;19.27;49.77
49040;BME280;36811;49.732;13.402;2023-01-01T12:01:47;98333.84;;;19.25;49.87
49040;BME280;36811;49.732;13.402;2023-01-01T12:06:47;98337.66;;;18.91;49.21
49040;BME280;36811;49.732;13.402;2023-01-01T12:14:16;98346.88;;;19.04;49.54
49040;BME280;36811;49.732;13.402;2023-01-01T12:19:23;98334.44;;;19.22;49.23
49040;BME280;36811;49.732;13.402;2023-01-01T12:21:53;98338.53;;;19.33;49.15
49040;BME280;36811;49.732;13.402;2023-01-01T12:24:19;98338.06;;;19.44;48.83
49040;BME280;36811;49.732;13.402;2023-01-01T12:34:47;98341.28;;;19.46;48.74
49040;BME280;36811;49.732;13.402;2023-01-01T12:48:29;98338.47;;;19.79;48.48
49040;BME280;36811;49.732;13.402;2023-01-01T13:01:30;98313.59;;;19.54;48.31
49040;BME280;36811;49.732;13.402;2023-01-01T13:03:58;98315.41;;;19.45;48.15
49040;BME280;36811;49.732;13.402;2023-01-01T13:06:30;98318.53;;;19.20;48.61
49040;BME280;36811;49.732;13.402;2023-01-01T13:09:05;98319.72;;;19.14;48.47
49040;BME280;36811;49.732;13.402;2023-01-01T13:11:31;98319.41;;;19.02;49.47
49040;BME280;36811;49.732;13.402;2023-01-01T13:13:58;98318.78;;;19.05;49.29
49040;BME280;36811;49.732;13.402;2023-01-01T13:21:49;98310.91;;;18.44;50.60
49040;BME280;36811;49.732;13.402;2023-01-01T13:24:18;98313.84;;;18.29;50.65
49040;BME280;36811;49.732;13.402;2023-01-01T13:26:45;98301.22;;;18.24;50.92
49040;BME280;36811;49.732;13.402;2023-01-01T13:36:50;98304.66;;;18.30;51.68
49040;BME280;36811;49.732;13.402;2023-01-01T13:41:59;98306.34;;;18.26;51.02
49040;BME280;36811;49.732;13.402;2023-01-01T13:44:25;98316.75;;;18.14;51.48
49040;BME280;36811;49.732;13.402;2023-01-01T13:47:03;98317.41;;;18.06;51.45
49040;BME280;36811;49.732;13.402;2023-01-01T14:02:32;98319.59;;;17.61;52.29
49040;BME280;36811;49.732;13.402;2023-01-01T14:12:38;98321.59;;;17.46;52.68
49040;BME280;36811;49.732;13.402;2023-01-01T14:15:13;98326.47;;;17.44;53.05
49040;BME280;36811;49.732;13.402;2023-01-01T14:17:39;98316.06;;;17.37;53.24
49040;BME280;36811;49.732;13.402;2023-01-01T14:20:06;98316.13;;;17.32;53.14
49040;BME280;36811;49.732;13.402;2023-01-01T14:22:32;98317.78;;;17.28;53.42
49040;BME280;36811;49.732;13.402;2023-01-01T14:24:58;98322.69;;;17.21;53.72
49040;BME280;36811;49.732;13.402;2023-01-01T14:27:24;98319.50;;;17.19;53.61
49040;BME280;36811;49.732;13.402;2023-01-01T14:29:51;98320.56;;;17.18;53.53
49040;BME280;36811;49.732;13.402;2023-01-01T14:32:22;98317.72;;;17.09;54.61
49040;BME280;36811;49.732;13.402;2023-01-01T14:34:57;98315.28;;;17.08;54.50
49040;BME280;36811;49.732;13.402;2023-01-01T14:37:23;98317.56;;;16.96;54.70
49040;BME280;36811;49.732;13.402;2023-01-01T14:42:33;98320.81;;;16.64;55.60
49040;BME280;36811;49.732;13.402;2023-01-01T14:45:00;98323.53;;;16.59;55.92
49040;BME280;36811;49.732;13.402;2023-01-01T14:49:52;98326.09;;;16.35;56.17
49040;BME280;36811;49.732;13.402;2023-01-01T14:52:21;98322.91;;;16.33;56.32
49040;BME280;36811;49.732;13.402;2023-01-01T14:54:48;98324.50;;;16.29;56.80
49040;BME280;36811;49.732;13.402;2023-01-01T14:57:36;98323.84;;;16.14;57.24
49040;BME280;36811;49.732;13.402;2023-01-01T15:00:03;98324.19;;;15.97;57.04
49040;BME280;36811;49.732;13.402;2023-01-01T15:02:38;98321.31;;;15.83;57.64
49040;BME280;36811;49.732;13.402;2023-01-01T15:05:14;98332.34;;;15.72;57.64
49040;BME280;36811;49.732;13.402;2023-01-01T15:07:58;98328.91;;;15.56;58.02
49040;BME280;36811;49.732;13.402;2023-01-01T15:10:27;98328.97;;;15.36;58.63
49040;BME280;36811;49.732;13.402;2023-01-01T15:12:53;98322.28;;;15.23;58.83